createdAt,value
2019-03-06T00:00:30.925Z,9.23
2019-03-06T00:02:56.977Z,8.80
2019-03-06T00:05:22.973Z,9.20
2019-03-06T00:07:49.260Z,8.97
2019-03-06T00:10:22.161Z,8.57
2019-03-06T00:12:48.052Z,9.00
2019-03-06T00:15:14.283Z,8.70
2019-03-06T00:17:40.439Z,8.67
2019-03-06T00:20:06.453Z,8.57
2019-03-06T00:22:32.484Z,8.27
2019-03-06T00:24:58.409Z,8.50
2019-03-06T00:27:24.401Z,8.50
2019-03-06T00:29:50.511Z,7.83
2019-03-06T00:32:16.440Z,8.30
2019-03-06T00:34:42.364Z,7.80
2019-03-06T00:37:08.561Z,7.47
2019-03-06T00:39:36.490Z,7.80
2019-03-06T00:42:02.480Z,7.47
2019-03-06T00:44:28.438Z,7.80
2019-03-06T00:46:54.332Z,7.40
2019-03-06T00:49:20.333Z,7.70
2019-03-06T00:51:46.359Z,7.80
2019-03-06T00:54:12.287Z,7.50
2019-03-06T00:56:38.460Z,7.63
2019-03-06T00:59:04.314Z,7.87
2019-03-06T01:01:30.225Z,7.60
2019-03-06T01:03:56.224Z,7.60
2019-03-06T01:06:22.176Z,7.10
2019-03-06T01:08:48.258Z,7.67
2019-03-06T01:11:14.224Z,7.63
2019-03-06T01:13:40.275Z,7.83
2019-03-06T01:16:06.172Z,7.37
2019-03-06T01:18:32.133Z,7.83
2019-03-06T01:20:57.953Z,7.53
2019-03-06T01:23:24.343Z,7.07
2019-03-06T01:25:50.176Z,7.60
2019-03-06T01:28:16.099Z,8.17
2019-03-06T01:30:42.204Z,7.40
2019-03-06T01:33:15.827Z,7.57
2019-03-06T01:36:02.299Z,7.63
2019-03-06T01:38:42.211Z,7.60
2019-03-06T01:41:10.182Z,8.07
2019-03-06T01:43:46.958Z,7.77
2019-03-06T01:46:12.930Z,7.07
2019-03-06T01:48:38.926Z,6.93
2019-03-06T01:51:04.809Z,7.43
2019-03-06T01:53:30.961Z,7.03
2019-03-06T01:55:56.982Z,6.43
2019-03-06T01:58:23.249Z,6.90
2019-03-06T02:00:49.227Z,7.17
2019-03-06T02:03:15.365Z,6.97
2019-03-06T02:05:41.413Z,6.67
2019-03-06T02:08:08.089Z,6.67
2019-03-06T02:10:34.057Z,6.40
2019-03-06T02:13:00.327Z,6.67
2019-03-06T02:15:26.319Z,6.77
2019-03-06T02:17:52.375Z,6.70
2019-03-06T02:20:18.355Z,6.33
2019-03-06T02:22:44.764Z,7.00
2019-03-06T02:25:11.033Z,7.43
2019-03-06T02:27:36.964Z,6.53
2019-03-06T02:30:09.656Z,6.80
2019-03-06T02:32:35.641Z,6.87
2019-03-06T02:35:01.691Z,6.43
2019-03-06T02:37:27.640Z,6.80
2019-03-06T02:39:53.502Z,6.10
2019-03-06T02:42:19.343Z,6.20
2019-03-06T02:44:45.320Z,6.27
2019-03-06T02:47:11.156Z,6.23
2019-03-06T02:49:37.152Z,6.20
2019-03-06T02:52:03.234Z,6.20
2019-03-06T02:54:29.075Z,6.10
2019-03-06T02:56:55.006Z,6.60
2019-03-06T02:59:22.888Z,6.43
2019-03-06T03:01:50.744Z,6.07
2019-03-06T03:04:18.611Z,6.23
2019-03-06T03:06:49.079Z,6.53
2019-03-06T03:09:16.825Z,5.67
2019-03-06T03:11:42.985Z,5.80
2019-03-06T03:14:09.125Z,6.13
2019-03-06T03:16:34.959Z,6.20
2019-03-06T03:19:01.181Z,5.97
2019-03-06T03:21:27.201Z,6.20
2019-03-06T03:23:53.237Z,5.93
2019-03-06T03:26:19.201Z,5.60
2019-03-06T03:28:45.119Z,6.20
2019-03-06T03:31:11.144Z,5.77
2019-03-06T03:33:40.490Z,5.90
2019-03-06T03:36:06.405Z,6.10
2019-03-06T03:38:32.282Z,5.70
2019-03-06T03:40:58.138Z,5.17
2019-03-06T03:43:24.119Z,6.00
2019-03-06T03:45:50.353Z,5.70
2019-03-06T03:48:16.216Z,5.63
2019-03-06T03:50:42.127Z,6.20
2019-03-06T03:53:07.976Z,6.17
2019-03-06T03:55:33.814Z,6.47
2019-03-06T03:57:59.702Z,5.40
2019-03-06T04:00:25.641Z,6.17
2019-03-06T04:02:51.843Z,6.00
2019-03-06T04:05:17.898Z,5.53
2019-03-06T04:07:43.944Z,6.23
2019-03-06T04:10:13.008Z,5.93
2019-03-06T04:12:39.116Z,5.60
2019-03-06T04:15:08.248Z,5.97
2019-03-06T04:17:34.323Z,5.80
2019-03-06T04:20:00.517Z,5.90
2019-03-06T04:22:26.689Z,5.50
2019-03-06T04:24:52.546Z,5.47
2019-03-06T04:27:18.427Z,5.23
2019-03-06T04:29:44.464Z,5.50
2019-03-06T04:32:10.508Z,5.17
2019-03-06T04:34:36.696Z,5.50
2019-03-06T04:37:02.751Z,5.50
2019-03-06T04:39:28.697Z,5.97
2019-03-06T04:41:54.528Z,5.37
2019-03-06T04:44:20.630Z,5.20
2019-03-06T04:46:46.483Z,5.20
2019-03-06T04:49:12.349Z,5.40
2019-03-06T04:51:38.295Z,5.53
2019-03-06T04:54:04.287Z,5.27
2019-03-06T04:56:30.147Z,5.10
2019-03-06T04:58:55.986Z,5.63
2019-03-06T05:01:21.838Z,5.67
2019-03-06T05:03:47.931Z,5.47
2019-03-06T05:06:14.072Z,5.50
2019-03-06T05:08:40.047Z,5.57
2019-03-06T05:11:06.058Z,5.60
2019-03-06T05:13:31.911Z,5.73
2019-03-06T05:15:57.732Z,5.80
2019-03-06T05:18:28.568Z,5.80
2019-03-06T05:20:54.628Z,5.70
2019-03-06T05:23:20.702Z,5.40
2019-03-06T05:25:46.594Z,5.93
2019-03-06T05:28:12.442Z,6.03
2019-03-06T05:30:38.261Z,5.77
2019-03-06T05:33:13.461Z,5.27
2019-03-06T05:36:04.020Z,6.17
2019-03-06T05:38:36.773Z,5.50
2019-03-06T05:41:02.807Z,5.90
2019-03-06T05:43:28.983Z,5.93
2019-03-06T05:45:55.148Z,5.83
2019-03-06T05:48:21.253Z,6.17
2019-03-06T05:50:47.306Z,6.23
2019-03-06T05:53:13.540Z,5.83
2019-03-06T05:55:39.399Z,5.90
2019-03-06T05:58:05.626Z,5.97
2019-03-06T06:00:31.506Z,6.17
2019-03-06T06:02:57.453Z,6.10
2019-03-06T06:05:23.403Z,6.33
2019-03-06T06:07:49.393Z,6.00
2019-03-06T06:10:15.533Z,6.40
2019-03-06T06:12:41.568Z,6.57
2019-03-06T06:15:09.449Z,6.60
2019-03-06T06:17:35.308Z,6.23
2019-03-06T06:20:01.408Z,6.90
2019-03-06T06:22:31.951Z,6.80
2019-03-06T06:24:57.873Z,7.10
2019-03-06T06:27:23.952Z,6.37
2019-03-06T06:29:52.766Z,6.10
2019-03-06T06:32:18.723Z,7.20
2019-03-06T06:34:44.638Z,7.10
2019-03-06T06:37:13.886Z,6.67
2019-03-06T06:39:39.857Z,6.93
2019-03-06T06:42:06.077Z,7.20
2019-03-06T06:44:32.055Z,7.23
2019-03-06T06:46:58.073Z,7.43
2019-03-06T06:49:24.027Z,7.43
2019-03-06T06:52:05.240Z,6.90
2019-03-06T06:54:38.231Z,7.00
2019-03-06T06:57:23.097Z,7.03
2019-03-06T07:00:07.867Z,7.40
2019-03-06T07:03:14.528Z,7.00
2019-03-06T07:05:45.216Z,7.40
2019-03-06T07:08:15.924Z,7.00
2019-03-06T07:10:52.718Z,7.47
2019-03-06T07:13:20.697Z,7.33
2019-03-06T07:15:54.416Z,7.53
2019-03-06T07:18:22.269Z,7.80
2019-03-06T07:20:55.846Z,8.00
2019-03-06T07:23:26.719Z,7.97
2019-03-06T07:26:09.518Z,7.60
2019-03-06T07:28:43.370Z,7.30
2019-03-06T07:31:17.452Z,7.67
2019-03-06T07:33:47.952Z,7.93
2019-03-06T07:36:32.490Z,8.63
2019-03-06T07:38:58.484Z,8.10
2019-03-06T07:41:28.946Z,8.50
2019-03-06T07:44:14.991Z,7.93
2019-03-06T07:46:48.541Z,8.27
2019-03-06T07:49:25.202Z,8.37
2019-03-06T07:52:05.048Z,7.90
2019-03-06T07:54:32.785Z,8.17
2019-03-06T07:57:12.646Z,8.27
2019-03-06T07:59:38.691Z,8.50
2019-03-06T08:02:23.844Z,8.78
2019-03-06T08:04:52.114Z,7.93
2019-03-06T08:07:17.947Z,7.97
2019-03-06T08:09:43.991Z,9.43
2019-03-06T08:12:28.581Z,8.80
2019-03-06T08:15:13.177Z,9.17
2019-03-06T08:17:44.116Z,8.80
2019-03-06T08:20:28.468Z,8.70
2019-03-06T08:23:02.204Z,8.60
2019-03-06T08:25:42.418Z,9.20
2019-03-06T08:28:08.413Z,9.67
2019-03-06T08:30:39.192Z,10.17
2019-03-06T08:33:05.161Z,10.00
2019-03-06T08:35:31.899Z,11.70
2019-03-06T08:37:57.740Z,12.57
2019-03-06T08:40:27.742Z,12.67
2019-03-06T08:42:53.697Z,13.07
2019-03-06T08:45:24.287Z,14.23
2019-03-06T08:48:07.416Z,14.60
2019-03-06T08:50:35.237Z,15.67
2019-03-06T08:53:14.957Z,20.30
2019-03-06T08:55:42.939Z,18.43
2019-03-06T08:58:27.862Z,18.47
2019-03-06T09:00:58.549Z,16.40
2019-03-06T09:03:29.919Z,19.90
2019-03-06T09:06:00.490Z,18.53
2019-03-06T09:08:34.069Z,18.33
2019-03-06T09:11:03.059Z,18.97
2019-03-06T09:13:37.514Z,21.57
2019-03-06T09:16:05.290Z,21.53
2019-03-06T09:18:33.119Z,23.90
2019-03-06T09:21:00.975Z,24.13
2019-03-06T09:23:31.468Z,25.07
2019-03-06T09:26:05.358Z,27.33
2019-03-06T09:28:33.489Z,27.07
2019-03-06T09:31:04.310Z,28.43
2019-03-06T09:33:32.138Z,29.20
2019-03-06T09:36:06.401Z,29.23
2019-03-06T09:38:42.973Z,30.03
2019-03-06T09:41:10.986Z,28.97
2019-03-06T09:43:44.553Z,29.07
2019-03-06T09:46:21.183Z,29.20
2019-03-06T09:49:11.153Z,31.03
2019-03-06T09:51:36.975Z,31.97
2019-03-06T09:54:11.607Z,31.20
2019-03-06T09:56:39.533Z,31.53
2019-03-06T09:59:07.507Z,31.60
2019-03-06T10:01:40.060Z,30.33
2019-03-06T10:04:19.763Z,31.10
2019-03-06T10:06:47.928Z,31.30
2019-03-06T10:09:31.982Z,31.47
2019-03-06T10:12:09.839Z,33.10
2019-03-06T10:14:46.644Z,31.53
2019-03-06T10:17:31.022Z,31.97
2019-03-06T10:20:01.528Z,31.03
2019-03-06T10:22:27.372Z,31.90
2019-03-06T10:24:53.403Z,32.60
2019-03-06T10:27:19.445Z,32.07
2019-03-06T10:29:45.494Z,31.33
2019-03-06T10:32:11.624Z,32.60
2019-03-06T10:34:37.606Z,34.27
2019-03-06T10:39:29.404Z,31.17
2019-03-06T10:41:55.303Z,31.17
2019-03-06T10:44:28.770Z,33.07
2019-03-06T10:46:49.111Z,31.83
2019-03-06T10:49:15.108Z,32.40
2019-03-06T10:51:41.078Z,32.83
2019-03-06T10:54:07.110Z,32.27
2019-03-06T10:56:33.289Z,31.23
2019-03-06T10:58:59.826Z,30.93
2019-03-06T11:01:26.089Z,30.90
2019-03-06T11:04:05.868Z,31.30
2019-03-06T11:06:32.013Z,30.97
2019-03-06T11:08:57.986Z,30.80
2019-03-06T11:11:24.062Z,29.93
2019-03-06T11:13:50.312Z,30.03
2019-03-06T11:16:17.925Z,30.77
2019-03-06T11:18:44.294Z,29.63
2019-03-06T11:21:10.396Z,30.63
2019-03-06T11:23:36.341Z,30.90
2019-03-06T11:26:05.273Z,30.00
2019-03-06T11:28:31.458Z,30.70
2019-03-06T11:30:58.824Z,28.83
2019-03-06T11:33:25.383Z,30.83
2019-03-06T11:35:55.401Z,29.30
2019-03-06T11:38:21.820Z,28.43
2019-03-06T11:40:47.866Z,29.93
2019-03-06T11:43:13.952Z,28.87
2019-03-06T11:45:40.613Z,29.13
2019-03-06T11:48:07.362Z,28.90
2019-03-06T11:50:40.636Z,26.47
2019-03-06T11:53:01.312Z,27.63
2019-03-06T11:55:27.812Z,30.37
2019-03-06T11:57:53.915Z,30.03
2019-03-06T12:00:29.599Z,30.13
2019-03-06T12:02:55.473Z,30.13
2019-03-06T12:05:22.306Z,27.13
2019-03-06T12:07:48.610Z,28.80
2019-03-06T12:10:14.946Z,25.43
2019-03-06T12:12:40.897Z,26.97
2019-03-06T12:15:09.453Z,27.93
2019-03-06T12:17:35.588Z,26.83
2019-03-06T12:20:08.210Z,25.27
2019-03-06T12:22:29.574Z,24.80
2019-03-06T12:24:55.552Z,20.63
2019-03-06T12:27:21.493Z,19.43
2019-03-06T12:29:47.527Z,23.60
2019-03-06T12:32:13.549Z,21.63
2019-03-06T12:34:39.579Z,24.67
2019-03-06T12:37:05.624Z,21.33
2019-03-06T12:39:31.618Z,23.53
2019-03-06T12:41:58.917Z,23.47
2019-03-06T12:44:25.035Z,22.00
2019-03-06T12:46:51.017Z,14.87
2019-03-06T12:49:17.130Z,13.65
2019-03-06T12:51:43.066Z,13.13
2019-03-06T12:54:09.126Z,13.48
2019-03-06T12:56:35.314Z,13.40
2019-03-06T12:59:01.254Z,15.60
2019-03-06T13:01:27.208Z,16.40
2019-03-06T13:03:53.181Z,18.83
2019-03-06T13:06:24.504Z,19.07
2019-03-06T13:08:50.779Z,17.40
2019-03-06T13:11:15.600Z,17.05
2019-03-06T13:13:41.548Z,18.02
2019-03-06T13:16:07.716Z,14.68
2019-03-06T13:18:33.651Z,14.20
2019-03-06T13:20:59.628Z,13.35
2019-03-06T13:23:25.741Z,12.82
2019-03-06T13:25:51.874Z,13.32
2019-03-06T13:28:17.959Z,12.23
2019-03-06T13:30:43.949Z,14.47
2019-03-06T13:33:13.699Z,13.38
2019-03-06T13:35:40.295Z,12.85
2019-03-06T13:38:06.362Z,13.40
2019-03-06T13:40:32.404Z,13.32
2019-03-06T13:42:58.636Z,14.60
2019-03-06T13:45:24.680Z,13.03
2019-03-06T13:47:51.142Z,13.45
2019-03-06T13:50:17.265Z,13.22
2019-03-06T13:52:43.207Z,15.30
2019-03-06T13:55:10.720Z,15.00
2019-03-06T13:57:36.653Z,14.75
2019-03-06T14:00:18.000Z,15.75
2019-03-06T14:02:45.878Z,15.98
2019-03-06T14:05:13.245Z,15.60
2019-03-06T14:07:39.236Z,15.50
2019-03-06T14:10:07.490Z,15.83
2019-03-06T14:12:33.550Z,15.13
2019-03-06T14:14:59.578Z,15.93
2019-03-06T14:17:25.726Z,16.17
2019-03-06T14:19:51.887Z,15.67
2019-03-06T14:22:18.970Z,16.43
2019-03-06T14:24:44.991Z,15.80
2019-03-06T14:27:11.343Z,16.47
2019-03-06T14:29:37.383Z,16.63
2019-03-06T14:32:03.594Z,17.67
2019-03-06T14:34:29.434Z,17.93
2019-03-06T14:36:56.008Z,17.57
2019-03-06T14:39:24.594Z,18.20
2019-03-06T14:41:50.760Z,19.53
2019-03-06T14:44:16.853Z,17.67
2019-03-06T14:46:46.652Z,19.80
2019-03-06T14:49:12.722Z,18.80
2019-03-06T14:51:38.575Z,19.87
2019-03-06T14:54:05.624Z,19.43
2019-03-06T14:56:32.075Z,19.27
2019-03-06T14:58:57.925Z,20.10
2019-03-06T15:01:23.860Z,21.00
2019-03-06T15:03:49.786Z,20.37
2019-03-06T15:06:15.732Z,22.03
2019-03-06T15:08:41.798Z,22.47
2019-03-06T15:11:07.815Z,22.47
2019-03-06T15:13:34.299Z,23.03
2019-03-06T15:16:00.333Z,22.07
2019-03-06T15:18:26.366Z,22.57
2019-03-06T15:20:52.233Z,22.33
2019-03-06T15:23:18.272Z,22.43
2019-03-06T15:25:44.219Z,21.77
2019-03-06T15:28:10.306Z,22.50
2019-03-06T15:30:36.518Z,23.37
2019-03-06T15:33:02.696Z,23.07
2019-03-06T15:35:28.734Z,24.40
2019-03-06T15:37:54.897Z,24.27
2019-03-06T15:40:24.138Z,24.07
2019-03-06T15:42:50.555Z,23.93
2019-03-06T15:45:18.093Z,23.10
2019-03-06T15:47:44.355Z,23.03
2019-03-06T15:50:12.544Z,22.90
2019-03-06T15:52:39.186Z,23.57
2019-03-06T15:55:08.871Z,23.13
2019-03-06T15:57:34.890Z,24.53
2019-03-06T16:00:01.272Z,24.73
2019-03-06T16:02:27.451Z,24.67
2019-03-06T16:04:53.513Z,24.80
2019-03-06T16:07:19.777Z,23.80
2019-03-06T16:09:45.867Z,23.63
2019-03-06T16:12:12.400Z,24.20
2019-03-06T16:14:39.047Z,24.17
2019-03-06T16:17:05.159Z,24.33
2019-03-06T16:19:31.035Z,24.13
2019-03-06T16:21:56.904Z,23.50
2019-03-06T16:24:23.260Z,21.10
2019-03-06T16:26:49.186Z,20.03
2019-03-06T16:29:15.393Z,19.87
2019-03-06T16:31:41.810Z,19.90
2019-03-06T16:34:07.885Z,21.03
2019-03-06T16:36:34.024Z,22.37
2019-03-06T16:39:00.105Z,22.10
2019-03-06T16:41:26.416Z,21.80
2019-03-06T16:43:52.861Z,22.60
2019-03-06T16:46:19.247Z,21.97
2019-03-06T16:48:45.684Z,21.80
2019-03-06T16:51:11.875Z,21.27
2019-03-06T16:53:38.150Z,21.77
2019-03-06T16:56:04.340Z,22.40
2019-03-06T16:58:30.582Z,24.10
2019-03-06T17:00:59.757Z,26.33
2019-03-06T17:03:25.749Z,26.30
2019-03-06T17:05:52.024Z,26.23
2019-03-06T17:08:18.204Z,26.97
2019-03-06T17:10:44.300Z,28.17
2019-03-06T17:13:10.368Z,29.20
2019-03-06T17:15:36.477Z,30.17
2019-03-06T17:18:03.030Z,27.83
2019-03-06T17:20:35.767Z,28.10
2019-03-06T17:23:02.168Z,27.73
2019-03-06T17:25:28.513Z,28.83
2019-03-06T17:27:54.582Z,30.37
2019-03-06T17:30:26.472Z,30.40
2019-03-06T17:33:02.802Z,29.90
2019-03-06T17:35:30.686Z,28.70
2019-03-06T17:37:56.851Z,24.90
2019-03-06T17:40:23.191Z,23.73
2019-03-06T17:42:49.334Z,23.80
2019-03-06T17:45:15.872Z,23.47
2019-03-06T17:47:41.901Z,22.87
2019-03-06T17:50:11.862Z,22.57
2019-03-06T17:52:37.803Z,21.80
2019-03-06T17:55:05.415Z,21.83
2019-03-06T17:57:31.307Z,22.20
2019-03-06T17:59:57.281Z,22.87
2019-03-06T18:02:26.395Z,26.37
2019-03-06T18:04:52.415Z,23.03
2019-03-06T18:07:18.437Z,26.40
2019-03-06T18:09:44.646Z,21.63
2019-03-06T18:12:10.624Z,21.17
2019-03-06T18:14:36.672Z,21.60
2019-03-06T18:17:02.730Z,21.33
2019-03-06T18:19:28.735Z,21.37
2019-03-06T18:21:54.841Z,20.70
2019-03-06T18:24:20.810Z,21.03
2019-03-06T18:26:46.893Z,20.80
2019-03-06T18:29:13.278Z,20.80
2019-03-06T18:31:39.246Z,21.13
2019-03-06T18:34:05.338Z,19.87
2019-03-06T18:36:31.542Z,19.23
2019-03-06T18:38:57.380Z,19.97
2019-03-06T18:41:23.370Z,20.63
2019-03-06T18:43:49.379Z,19.13
2019-03-06T18:46:15.362Z,19.37
2019-03-06T18:48:41.234Z,19.43
2019-03-06T18:51:11.103Z,19.93
2019-03-06T18:53:37.214Z,20.53
2019-03-06T18:56:03.335Z,20.03
2019-03-06T18:58:29.359Z,20.23
2019-03-06T19:00:55.416Z,20.10
2019-03-06T19:03:21.550Z,20.17
2019-03-06T19:05:47.663Z,22.80
2019-03-06T19:08:13.721Z,23.70
2019-03-06T19:10:39.780Z,23.77
2019-03-06T19:13:05.905Z,22.43
2019-03-06T19:15:34.695Z,22.43
2019-03-06T19:18:00.915Z,22.43
2019-03-06T19:20:27.101Z,23.47
2019-03-06T19:22:53.439Z,23.17
2019-03-06T19:25:19.737Z,23.60
2019-03-06T19:27:46.029Z,24.83
2019-03-06T19:30:17.045Z,23.73
2019-03-06T19:32:43.109Z,23.87
2019-03-06T19:35:09.279Z,24.47
2019-03-06T19:37:35.171Z,25.13
2019-03-06T19:40:01.325Z,26.27
2019-03-06T19:42:27.289Z,28.13
2019-03-06T19:44:54.112Z,25.70
2019-03-06T19:47:20.358Z,25.27
2019-03-06T19:49:46.509Z,26.23
2019-03-06T19:52:12.777Z,25.70
2019-03-06T19:54:38.626Z,26.80
2019-03-06T19:57:05.020Z,24.93
2019-03-06T19:59:30.916Z,25.50
2019-03-06T20:01:56.978Z,26.17
2019-03-06T20:04:23.190Z,25.77
2019-03-06T20:06:49.420Z,26.20
2019-03-06T20:09:21.411Z,28.10
2019-03-06T20:11:47.555Z,28.37
2019-03-06T20:14:13.509Z,29.53
2019-03-06T20:16:39.443Z,29.63
2019-03-06T20:19:05.567Z,28.87
2019-03-06T20:21:31.554Z,27.87
2019-03-06T20:23:57.460Z,29.80
2019-03-06T20:26:23.726Z,29.50
2019-03-06T20:28:50.065Z,28.97
2019-03-06T20:31:16.279Z,27.97
2019-03-06T20:33:42.408Z,29.27
2019-03-06T20:36:08.751Z,28.37
2019-03-06T20:38:35.109Z,28.73
2019-03-06T20:41:01.374Z,28.60
2019-03-06T20:43:27.935Z,26.97
2019-03-06T20:45:54.585Z,27.17
2019-03-06T20:48:21.234Z,26.43
2019-03-06T20:50:48.005Z,29.10
2019-03-06T20:53:14.746Z,32.50
2019-03-06T20:55:41.461Z,27.40
2019-03-06T20:58:08.469Z,27.17
2019-03-06T21:00:35.469Z,26.87
2019-03-06T21:03:02.553Z,27.87
2019-03-06T21:05:29.261Z,27.67
2019-03-06T21:07:56.378Z,27.47
2019-03-06T21:10:23.363Z,28.33
2019-03-06T21:12:50.487Z,27.10
2019-03-06T21:15:18.472Z,27.23
2019-03-06T21:17:45.345Z,28.03
2019-03-06T21:20:13.545Z,28.50
2019-03-06T21:22:40.257Z,28.67
2019-03-06T21:25:09.449Z,27.13
2019-03-06T21:27:36.121Z,27.83
2019-03-06T21:30:05.520Z,28.90
2019-03-06T21:32:31.845Z,28.90
2019-03-06T21:34:58.129Z,29.97
2019-03-06T21:37:24.695Z,28.50
2019-03-06T21:39:51.396Z,29.50
2019-03-06T21:42:17.648Z,27.70
2019-03-06T21:44:43.833Z,28.57
2019-03-06T21:47:09.981Z,28.30
2019-03-06T21:49:36.080Z,27.53
2019-03-06T21:52:02.758Z,29.83
2019-03-06T21:54:28.669Z,29.17
2019-03-06T21:56:54.915Z,29.23
2019-03-06T21:59:22.303Z,29.40
2019-03-06T22:01:48.387Z,28.23
2019-03-06T22:04:14.369Z,29.47
2019-03-06T22:06:40.238Z,29.73
2019-03-06T22:09:10.659Z,29.53
2019-03-06T22:11:36.494Z,30.37
2019-03-06T22:14:02.657Z,30.87
2019-03-06T22:16:28.653Z,36.17
2019-03-06T22:18:54.706Z,29.50
2019-03-06T22:21:20.791Z,30.10
2019-03-06T22:23:46.611Z,31.47
2019-03-06T22:26:12.844Z,33.37
2019-03-06T22:28:39.018Z,28.97
2019-03-06T22:31:04.984Z,28.83
2019-03-06T22:33:30.989Z,28.67
2019-03-06T22:35:58.813Z,32.80
2019-03-06T22:38:24.805Z,31.27
2019-03-06T22:40:50.834Z,29.03
2019-03-06T22:43:16.846Z,28.30
2019-03-06T22:45:42.818Z,28.07
2019-03-06T22:48:08.767Z,29.37
2019-03-06T22:50:34.734Z,28.37
2019-03-06T22:53:00.669Z,32.30
2019-03-06T22:55:29.830Z,29.83
2019-03-06T22:57:55.885Z,29.43
2019-03-06T23:00:32.503Z,28.07
2019-03-06T23:02:58.758Z,28.60
2019-03-06T23:05:26.763Z,27.20
2019-03-06T23:07:52.963Z,28.53
2019-03-06T23:10:19.149Z,29.37
2019-03-06T23:12:45.291Z,29.20
2019-03-06T23:15:11.247Z,28.70
2019-03-06T23:17:37.109Z,29.10
2019-03-06T23:20:05.335Z,28.90
2019-03-06T23:22:31.511Z,29.67
2019-03-06T23:24:57.359Z,28.57
2019-03-06T23:27:23.408Z,27.60
2019-03-06T23:29:49.500Z,28.40
2019-03-06T23:32:15.456Z,27.57
2019-03-06T23:34:41.283Z,29.40
2019-03-06T23:37:07.545Z,27.37
2019-03-06T23:39:33.498Z,27.97
2019-03-06T23:41:59.377Z,27.67
2019-03-06T23:44:25.315Z,26.70
2019-03-06T23:46:51.274Z,28.30
2019-03-06T23:49:17.284Z,28.10
2019-03-06T23:51:45.159Z,27.63
2019-03-06T23:54:10.989Z,28.93
2019-03-06T23:56:37.127Z,28.50
2019-03-06T23:59:03.257Z,27.50
